** WINDWAARNEMINGEN GEBEUREN MOMENTEEL OP EEN TIJDELIJKE HOOGTE VAN 5 M, DIT BINNENKORT AANGEPAST NAAR DE NORM VAN 10 M **
** ONZE WEBSITE WORDT BINNENKORT VOLLEDIG VERNIEUWD!! U KAN DEZE AL HIER AL TESTEN **
Het weer levert geen direct gevaar op.    Er zijn geen waarschuwingen afgegeven.

Weercam te Izegem Meer informatie Weercam te Izegem


Lokaal brand risico:
FWI


Regionaal brand risico: Meer informatie



METAR rapporten vliegvelden

   
EBOS - Oostende Airport, Belgium
Afstand tot: NW 39 km
Gewijzigd: 15-12-2017 10:20
Gedeeltelijk bewolkt  
Gedeeltelijk bewolkt  
   Wind: ZZW 11.1 km/h
Wind: ZZW 11.1 km/h
Temperatuur: 3°C
Voelt als: 0°C
Dauwpunt: 1°C
Vochtigheid: 87%
Barometer: 993 hPa
Bewolking: Partly Cloudy
Zicht: 8 km
Bewolking: Licht bewolkt 1500 ft,
Gedeeltelijk bewolkt 1700 ft
EBOS 150920Z 21006KT 8000 FEW015CB SCT017 03/01 Q0993 TEMPO 3000 SHRAGS BKN009 BKN014CB
LFQQ - Lille/Lesquin, France
Afstand tot: Z 40 km
Gewijzigd: 15-12-2017 10:30
Grotendeels bewolkt  
Grotendeels bewolkt  
   Wind: ZZW 18.5 km/h
Wind: ZZW 18.5 km/h
Temperatuur: 4°C
Voelt als: 0°C
Dauwpunt: 2°C
Vochtigheid: 87%
Barometer: 994 hPa
Bewolking: Mostly Cloudy
Zicht: meer dan 10 km
Bewolking: Grotendeels bewolkt 2800 ft,
Grotendeels bewolkt 5800 ft,
Grotendeels bewolkt 9600 ft,
Onweer ft
LFQQ 150930Z AUTO 20010KT 9999 BKN028/// BKN058/// BKN096/// ///TCU 04/02 Q0994 TEMPO 2000 TSRASN BKN008 BKN013CB
EBFN - Koksijde (bel-Af, Belgium
Afstand tot: WNW 43 km
Gewijzigd: 15-12-2017 10:25
Grotendeels bewolkt  
Grotendeels bewolkt  
   Wind: ZZW 9.3 km/h
Wind: ZZW 9.3 km/h
Temperatuur: 3°C
Voelt als: 1°C
Dauwpunt: 3°C
Vochtigheid: 100%
Barometer: 993 hPa
Bewolking: Mostly Cloudy
Zicht: 7 km
Bewolking: Licht bewolkt 1000 ft,
Gedeeltelijk bewolkt 1800 ft,
Grotendeels bewolkt 4000 ft
EBFN 150925Z 21005KT 7000 FEW010 SCT018 BKN040 03/03 Q0993 WHT WHT
EBCV - Chievres Ab, Belgium
Afstand tot: ZO 59 km
Gewijzigd: 15-12-2017 10:33
Grotendeels bewolkt  
Grotendeels bewolkt  
   Wind: ZZW 16.7 km/h
Wind: ZZW 16.7 km/h
Temperatuur: 3°C
Voelt als: -1°C
Dauwpunt: 2°C
Vochtigheid: 93%
Barometer: 994 hPa
Bewolking: Mostly Cloudy
Zicht: meer dan 10 km
Bewolking: Gedeeltelijk bewolkt 700 ft,
Grotendeels bewolkt 2300 ft
EBCV 150933Z AUTO 20009KT 9999 SCT007/// BKN023/// 03/02 Q0994 GRN
EHFS - Vlissingen, Netherlands
Afstand tot: NNO 65 km
Gewijzigd: 15-12-2017 10:25
Motregen, Bewolking  
Motregen, Bewolking  
   Wind: ZZW 25.9 km/h
Wind: ZZW 25.9 km/h
Temperatuur: 3°C
Voelt als: -2°C
Dauwpunt: 2°C
Vochtigheid: 93%
Barometer: 992 hPa
Bewolking: Overcast
Zicht: 8 km
Bewolking: Bewolking 1600 ft
EHFS 150925Z AUTO 20014KT 8000 DZ OVC016/// 03/02 Q0992 W///H///
EBBR - Brussels Nationa, Belgium
Afstand tot: O 91 km
Gewijzigd: 15-12-2017 10:20
Gedeeltelijk bewolkt  
Gedeeltelijk bewolkt  
   Wind: ZZW 9.3 km/h
Wind: ZZW 9.3 km/h
Temperatuur: 3°C
Voelt als: 1°C
Dauwpunt: 1°C
Vochtigheid: 87%
Barometer: 993 hPa
Bewolking: Partly Cloudy
Zicht: meer dan 10 km
Bewolking: Gedeeltelijk bewolkt 900 ft
EBBR 150920Z 20005KT 9999 SCT009 03/01 Q0993 NOSIG
EBAW - Antwerp/Deurne, Belgium
Afstand tot: ONO 94 km
Gewijzigd: 15-12-2017 10:20
Grotendeels bewolkt  
Grotendeels bewolkt  
   Wind: ZZW 11.1 km/h
Wind: ZZW 11.1 km/h
Temperatuur: 4°C
Voelt als: 1°C
Dauwpunt: 2°C
Vochtigheid: 87%
Barometer: 993 hPa
Bewolking: Mostly Cloudy
Zicht: meer dan 10 km
Bewolking: Grotendeels bewolkt 700 ft
EBAW 150920Z 21006KT 180V240 9999 BKN007 04/02 Q0993 TEMPO SCT008 BKN016
EHWO - Woensdrecht Rnla, Netherlands
Afstand tot: NO 98 km
Gewijzigd: 15-12-2017 10:29
Bewolking  
Bewolking  
   Wind: ZZW 9.3 km/h
Wind: ZZW 9.3 km/h
Temperatuur: 4°C
Voelt als: 2°C
Dauwpunt: 3°C
Vochtigheid: 93%
Barometer: 992 hPa
Bewolking: Overcast
Zicht: meer dan 10 km
Bewolking: Licht bewolkt 800 ft,
Gedeeltelijk bewolkt 4300 ft,
Bewolking 10000 ft
EHWO 150929Z AUTO 20005KT 160V220 9999 FEW008 SCT043 OVC100 04/03 Q0992 BLU 21006KT 9999 SCT008 BKN010 TEMPO FEW010 BKN025
EBCI - Charleroi/Gossel, Belgium
Afstand tot: OZO 102 km
Gewijzigd: 15-12-2017 10:20
Grotendeels bewolkt  
Grotendeels bewolkt  
   Wind: ZZW 16.7 km/h
Wind: ZZW 16.7 km/h
Temperatuur: 2°C
Voelt als: -2°C
Dauwpunt: 1°C
Vochtigheid: 93%
Barometer: 994 hPa
Bewolking: Mostly Cloudy
Zicht: meer dan 10 km
Bewolking: Grotendeels bewolkt 400 ft,
Grotendeels bewolkt 600 ft
EBCI 150920Z 21009KT 9999 BKN004 BKN006 02/01 Q0994 TEMPO BKN004

Script ontwikkeld door  Saratoga-weather.org Aangepast voor de template door  Weerstation Leuven